sensor_id;sensor_type;location;lat;lon;timestamp;pressure;altitude;pressure_sealevel;temperature;humidity
38939;BME280;24211;49.980;19.776;2023-04-15T00:01:26;98019.25;;;11.40;100.00
38939;BME280;24211;49.980;19.776;2023-04-15T00:03:54;98023.53;;;11.36;100.00
38939;BME280;24211;49.980;19.776;2023-04-15T00:06:22;98019.78;;;11.32;100.00
38939;BME280;24211;49.980;19.776;2023-04-15T00:08:49;98025.09;;;11.27;100.00
38939;BME280;24211;49.980;19.776;2023-04-15T00:11:17;98027.19;;;11.15;100.00
38939;BME280;24211;49.980;19.776;2023-04-15T00:13:44;98034.63;;;11.13;100.00
38939;BME280;24211;49.980;19.776;2023-04-15T00:16:12;98031.41;;;11.11;100.00
38939;BME280;24211;49.980;19.776;2023-04-15T00:18:39;98038.38;;;11.12;100.00
38939;BME280;24211;49.980;19.776;2023-04-15T00:21:06;98034.09;;;11.11;100.00
38939;BME280;24211;49.980;19.776;2023-04-15T00:23:34;98042.13;;;11.11;100.00
38939;BME280;24211;49.980;19.776;2023-04-15T00:26:03;98049.59;;;11.09;100.00
38939;BME280;24211;49.980;19.776;2023-04-15T00:28:30;98053.34;;;11.08;100.00
38939;BME280;24211;49.980;19.776;2023-04-15T00:30:58;98056.53;;;11.05;100.00
38939;BME280;24211;49.980;19.776;2023-04-15T00:33:25;98051.41;;;10.98;100.00
38939;BME280;24211;49.980;19.776;2023-04-15T00:35:53;98046.31;;;10.97;100.00
38939;BME280;24211;49.980;19.776;2023-04-15T00:38:20;98041.78;;;10.97;100.00
38939;BME280;24211;49.980;19.776;2023-04-15T00:40:48;98034.00;;;10.96;100.00
38939;BME280;24211;49.980;19.776;2023-04-15T00:43:16;98040.97;;;10.97;100.00
38939;BME280;24211;49.980;19.776;2023-04-15T00:45:43;98036.69;;;10.96;100.00
38939;BME280;24211;49.980;19.776;2023-04-15T00:48:12;98037.75;;;10.95;100.00
38939;BME280;24211;49.980;19.776;2023-04-15T00:50:40;98038.81;;;10.94;100.00
38939;BME280;24211;49.980;19.776;2023-04-15T00:53:07;98036.66;;;10.91;100.00
38939;BME280;24211;49.980;19.776;2023-04-15T00:55:35;98028.06;;;10.89;100.00
38939;BME280;24211;49.980;19.776;2023-04-15T00:58:03;98031.03;;;10.87;100.00
38939;BME280;24211;49.980;19.776;2023-04-15T01:00:31;98020.03;;;10.84;100.00
38939;BME280;24211;49.980;19.776;2023-04-15T01:02:58;98028.63;;;10.86;100.00
38939;BME280;24211;49.980;19.776;2023-04-15T01:05:27;98036.34;;;10.82;100.00
38939;BME280;24211;49.980;19.776;2023-04-15T01:07:56;98040.31;;;10.80;100.00
38939;BME280;24211;49.980;19.776;2023-04-15T01:10:23;98044.59;;;10.76;100.00
38939;BME280;24211;49.980;19.776;2023-04-15T01:12:51;98035.22;;;10.73;100.00
38939;BME280;24211;49.980;19.776;2023-04-15T01:15:19;98041.88;;;10.71;100.00
38939;BME280;24211;49.980;19.776;2023-04-15T01:17:47;98054.16;;;10.72;100.00
38939;BME280;24211;49.980;19.776;2023-04-15T01:20:15;98045.59;;;10.70;100.00
38939;BME280;24211;49.980;19.776;2023-04-15T01:22:43;98056.22;;;10.65;100.00
38939;BME280;24211;49.980;19.776;2023-04-15T01:25:17;98058.31;;;10.58;100.00
38939;BME280;24211;49.980;19.776;2023-04-15T01:27:46;98056.16;;;10.55;100.00
38939;BME280;24211;49.980;19.776;2023-04-15T01:30:13;98057.22;;;10.54;100.00
38939;BME280;24211;49.980;19.776;2023-04-15T01:32:41;98055.34;;;10.54;100.00
38939;BME280;24211;49.980;19.776;2023-04-15T01:35:09;98070.81;;;10.52;100.00
38939;BME280;24211;49.980;19.776;2023-04-15T01:37:36;98064.94;;;10.50;100.00
38939;BME280;24211;49.980;19.776;2023-04-15T01:40:05;98062.25;;;10.50;100.00
38939;BME280;24211;49.980;19.776;2023-04-15T01:42:34;98054.50;;;10.48;100.00
38939;BME280;24211;49.980;19.776;2023-04-15T01:45:03;98057.41;;;10.47;100.00
38939;BME280;24211;49.980;19.776;2023-04-15T01:47:31;98055.00;;;10.45;100.00
38939;BME280;24211;49.980;19.776;2023-04-15T01:49:58;98049.69;;;10.45;100.00
38939;BME280;24211;49.980;19.776;2023-04-15T01:52:27;98066.50;;;10.46;100.00
38939;BME280;24211;49.980;19.776;2023-04-15T01:54:56;98069.41;;;10.44;100.00
38939;BME280;24211;49.980;19.776;2023-04-15T01:57:23;98062.47;;;10.43;100.00
38939;BME280;24211;49.980;19.776;2023-04-15T01:59:51;98071.53;;;10.42;100.00
38939;BME280;24211;49.980;19.776;2023-04-15T02:02:18;98072.63;;;10.41;100.00
38939;BME280;24211;49.980;19.776;2023-04-15T02:04:45;98077.38;;;10.39;100.00
38939;BME280;24211;49.980;19.776;2023-04-15T02:07:12;98086.47;;;10.38;100.00
38939;BME280;24211;49.980;19.776;2023-04-15T02:09:40;98084.31;;;10.35;100.00
38939;BME280;24211;49.980;19.776;2023-04-15T02:12:08;98093.34;;;10.34;100.00
38939;BME280;24211;49.980;19.776;2023-04-15T02:14:35;98094.44;;;10.33;100.00
38939;BME280;24211;49.980;19.776;2023-04-15T02:17:03;98100.28;;;10.30;100.00
38939;BME280;24211;49.980;19.776;2023-04-15T02:19:35;98087.41;;;10.27;100.00
38939;BME280;24211;49.980;19.776;2023-04-15T02:22:02;98094.88;;;10.25;100.00
38939;BME280;24211;49.980;19.776;2023-04-15T02:24:30;98096.44;;;10.21;100.00
38939;BME280;24211;49.980;19.776;2023-04-15T02:26:57;98100.44;;;10.19;100.00
38939;BME280;24211;49.980;19.776;2023-04-15T02:29:24;98112.97;;;10.18;100.00
38939;BME280;24211;49.980;19.776;2023-04-15T02:31:52;98105.22;;;10.17;100.00
38939;BME280;24211;49.980;19.776;2023-04-15T02:34:19;98113.94;;;10.12;100.00
38939;BME280;24211;49.980;19.776;2023-04-15T02:36:47;98112.81;;;10.08;100.00
38939;BME280;24211;49.980;19.776;2023-04-15T02:39:15;98117.59;;;10.06;100.00
38939;BME280;24211;49.980;19.776;2023-04-15T02:41:44;98113.03;;;10.02;100.00
38939;BME280;24211;49.980;19.776;2023-04-15T02:44:18;98114.81;;;9.96;100.00
38939;BME280;24211;49.980;19.776;2023-04-15T02:46:52;98118.78;;;9.94;100.00
38939;BME280;24211;49.980;19.776;2023-04-15T02:49:21;98110.78;;;9.94;100.00
38939;BME280;24211;49.980;19.776;2023-04-15T02:51:49;98108.38;;;9.92;100.00
38939;BME280;24211;49.980;19.776;2023-04-15T02:54:20;98097.72;;;9.92;100.00
38939;BME280;24211;49.980;19.776;2023-04-15T02:56:49;98107.84;;;9.95;100.00
38939;BME280;24211;49.980;19.776;2023-04-15T02:59:16;98102.78;;;9.94;100.00
38939;BME280;24211;49.980;19.776;2023-04-15T03:01:43;98116.88;;;9.89;100.00
38939;BME280;24211;49.980;19.776;2023-04-15T03:04:11;98121.84;;;9.80;100.00
38939;BME280;24211;49.980;19.776;2023-04-15T03:06:39;98119.91;;;9.76;100.00
38939;BME280;24211;49.980;19.776;2023-04-15T03:09:09;98115.38;;;9.76;100.00
38939;BME280;24211;49.980;19.776;2023-04-15T03:11:38;98118.38;;;9.80;100.00
38939;BME280;24211;49.980;19.776;2023-04-15T03:14:08;98121.53;;;9.77;100.00
38939;BME280;24211;49.980;19.776;2023-04-15T03:16:39;98117.25;;;9.76;100.00
38939;BME280;24211;49.980;19.776;2023-04-15T03:19:07;98120.72;;;9.76;100.00
38939;BME280;24211;49.980;19.776;2023-04-15T03:21:34;98123.06;;;9.73;100.00
38939;BME280;24211;49.980;19.776;2023-04-15T03:24:02;98126.25;;;9.70;100.00
38939;BME280;24211;49.980;19.776;2023-04-15T03:26:31;98138.72;;;9.64;100.00
38939;BME280;24211;49.980;19.776;2023-04-15T03:29:04;98139.19;;;9.61;100.00
38939;BME280;24211;49.980;19.776;2023-04-15T03:31:32;98145.84;;;9.59;100.00
38939;BME280;24211;49.980;19.776;2023-04-15T03:34:00;98151.16;;;9.59;100.00
38939;BME280;24211;49.980;19.776;2023-04-15T03:36:30;98147.47;;;9.60;100.00
38939;BME280;24211;49.980;19.776;2023-04-15T03:38:59;98149.56;;;9.58;100.00
38939;BME280;24211;49.980;19.776;2023-04-15T03:41:29;98147.94;;;9.57;100.00
38939;BME280;24211;49.980;19.776;2023-04-15T03:43:57;98148.44;;;9.54;100.00
38939;BME280;24211;49.980;19.776;2023-04-15T03:46:24;98146.84;;;9.53;100.00
38939;BME280;24211;49.980;19.776;2023-04-15T03:48:51;98163.31;;;9.50;100.00
38939;BME280;24211;49.980;19.776;2023-04-15T03:51:18;98165.19;;;9.49;100.00
38939;BME280;24211;49.980;19.776;2023-04-15T03:53:46;98166.47;;;9.47;100.00
38939;BME280;24211;49.980;19.776;2023-04-15T03:56:13;98176.56;;;9.45;100.00
38939;BME280;24211;49.980;19.776;2023-04-15T03:58:41;98186.13;;;9.41;100.00
38939;BME280;24211;49.980;19.776;2023-04-15T04:01:08;98185.25;;;9.35;100.00
38939;BME280;24211;49.980;19.776;2023-04-15T04:03:35;98190.56;;;9.35;100.00
38939;BME280;24211;49.980;19.776;2023-04-15T04:06:04;98185.47;;;9.34;100.00
38939;BME280;24211;49.980;19.776;2023-04-15T04:08:31;98191.31;;;9.31;100.00
38939;BME280;24211;49.980;19.776;2023-04-15T04:10:58;98196.09;;;9.29;100.00
38939;BME280;24211;49.980;19.776;2023-04-15T04:13:25;98204.72;;;9.36;100.00
38939;BME280;24211;49.980;19.776;2023-04-15T04:15:52;98208.41;;;9.35;100.00
38939;BME280;24211;49.980;19.776;2023-04-15T04:18:21;98198.25;;;9.32;100.00
38939;BME280;24211;49.980;19.776;2023-04-15T04:20:48;98198.75;;;9.29;100.00
38939;BME280;24211;49.980;19.776;2023-04-15T04:23:15;98209.88;;;9.26;100.00
38939;BME280;24211;49.980;19.776;2023-04-15T04:25:43;98209.88;;;9.26;100.00
38939;BME280;24211;49.980;19.776;2023-04-15T04:28:10;98206.66;;;9.24;100.00
38939;BME280;24211;49.980;19.776;2023-04-15T04:30:37;98212.47;;;9.20;100.00
38939;BME280;24211;49.980;19.776;2023-04-15T04:33:06;98215.38;;;9.19;100.00
38939;BME280;24211;49.980;19.776;2023-04-15T04:35:33;98215.88;;;9.16;100.00
38939;BME280;24211;49.980;19.776;2023-04-15T04:38:03;98221.97;;;9.16;100.00
38939;BME280;24211;49.980;19.776;2023-04-15T04:40:30;98211.31;;;9.16;100.00
38939;BME280;24211;49.980;19.776;2023-04-15T04:42:58;98226.28;;;9.17;100.00
38939;BME280;24211;49.980;19.776;2023-04-15T04:45:50;98231.06;;;9.15;100.00
38939;BME280;24211;49.980;19.776;2023-04-15T04:48:18;98218.53;;;9.16;100.00
38939;BME280;24211;49.980;19.776;2023-04-15T04:50:45;98220.94;;;9.17;100.00
38939;BME280;24211;49.980;19.776;2023-04-15T04:53:14;98219.91;;;9.18;100.00
38939;BME280;24211;49.980;19.776;2023-04-15T04:55:41;98220.69;;;9.19;100.00
38939;BME280;24211;49.980;19.776;2023-04-15T04:58:08;98226.38;;;9.23;100.00
38939;BME280;24211;49.980;19.776;2023-04-15T05:00:35;98224.25;;;9.25;100.00
38939;BME280;24211;49.980;19.776;2023-04-15T05:03:04;98222.16;;;9.27;100.00
38939;BME280;24211;49.980;19.776;2023-04-15T05:05:32;98225.97;;;9.31;100.00
38939;BME280;24211;49.980;19.776;2023-04-15T05:08:00;98226.53;;;9.33;100.00
38939;BME280;24211;49.980;19.776;2023-04-15T05:10:27;98223.88;;;9.33;100.00
38939;BME280;24211;49.980;19.776;2023-04-15T05:12:54;98220.72;;;9.36;100.00
38939;BME280;24211;49.980;19.776;2023-04-15T05:15:21;98228.47;;;9.37;100.00
38939;BME280;24211;49.980;19.776;2023-04-15T05:17:49;98231.69;;;9.39;100.00
38939;BME280;24211;49.980;19.776;2023-04-15T05:20:16;98232.50;;;9.40;100.00
38939;BME280;24211;49.980;19.776;2023-04-15T05:22:44;98232.84;;;9.43;100.00
38939;BME280;24211;49.980;19.776;2023-04-15T05:25:11;98229.91;;;9.45;100.00
38939;BME280;24211;49.980;19.776;2023-04-15T05:27:39;98234.44;;;9.44;100.00
38939;BME280;24211;49.980;19.776;2023-04-15T05:30:07;98242.22;;;9.46;100.00
38939;BME280;24211;49.980;19.776;2023-04-15T05:32:35;98236.13;;;9.50;100.00
38939;BME280;24211;49.980;19.776;2023-04-15T05:35:03;98233.78;;;9.54;100.00
38939;BME280;24211;49.980;19.776;2023-04-15T05:37:30;98245.91;;;9.61;100.00
38939;BME280;24211;49.980;19.776;2023-04-15T05:39:57;98250.91;;;9.74;100.00
38939;BME280;24211;49.980;19.776;2023-04-15T05:42:25;98246.16;;;9.98;100.00
38939;BME280;24211;49.980;19.776;2023-04-15T05:44:52;98242.75;;;10.19;100.00
38939;BME280;24211;49.980;19.776;2023-04-15T05:47:19;98244.47;;;10.30;100.00
38939;BME280;24211;49.980;19.776;2023-04-15T05:49:47;98240.88;;;10.41;100.00
38939;BME280;24211;49.980;19.776;2023-04-15T05:52:14;98236.44;;;10.52;100.00
38939;BME280;24211;49.980;19.776;2023-04-15T05:54:42;98238.41;;;10.62;100.00
38939;BME280;24211;49.980;19.776;2023-04-15T05:57:10;98233.94;;;10.67;100.00
38939;BME280;24211;49.980;19.776;2023-04-15T05:59:37;98239.88;;;10.74;100.00
38939;BME280;24211;49.980;19.776;2023-04-15T06:02:05;98235.97;;;10.82;100.00
38939;BME280;24211;49.980;19.776;2023-04-15T06:04:33;98243.59;;;10.95;100.00
38939;BME280;24211;49.980;19.776;2023-04-15T06:07:01;98244.22;;;11.07;100.00
38939;BME280;24211;49.980;19.776;2023-04-15T06:09:28;98244.81;;;11.14;100.00
38939;BME280;24211;49.980;19.776;2023-04-15T06:11:56;98252.88;;;11.19;100.00
38939;BME280;24211;49.980;19.776;2023-04-15T06:14:23;98252.47;;;11.32;100.00
38939;BME280;24211;49.980;19.776;2023-04-15T06:16:51;98253.66;;;11.46;100.00
38939;BME280;24211;49.980;19.776;2023-04-15T06:19:18;98254.81;;;11.60;100.00
38939;BME280;24211;49.980;19.776;2023-04-15T06:21:46;98253.09;;;11.76;100.00
38939;BME280;24211;49.980;19.776;2023-04-15T06:24:13;98257.47;;;11.92;100.00
38939;BME280;24211;49.980;19.776;2023-04-15T06:26:41;98256.22;;;12.05;100.00
38939;BME280;24211;49.980;19.776;2023-04-15T06:29:08;98267.00;;;12.20;100.00
38939;BME280;24211;49.980;19.776;2023-04-15T06:31:35;98265.97;;;12.31;100.00
38939;BME280;24211;49.980;19.776;2023-04-15T06:34:03;98262.81;;;12.39;100.00
38939;BME280;24211;49.980;19.776;2023-04-15T06:36:30;98264.69;;;12.43;100.00
38939;BME280;24211;49.980;19.776;2023-04-15T06:38:58;98253.75;;;12.45;100.00
38939;BME280;24211;49.980;19.776;2023-04-15T06:41:26;98253.22;;;12.53;100.00
38939;BME280;24211;49.980;19.776;2023-04-15T06:43:53;98254.34;;;12.62;100.00
38939;BME280;24211;49.980;19.776;2023-04-15T06:46:20;98257.28;;;12.71;100.00
38939;BME280;24211;49.980;19.776;2023-04-15T06:48:48;98257.06;;;12.77;100.00
38939;BME280;24211;49.980;19.776;2023-04-15T06:51:15;98260.03;;;12.91;100.00
38939;BME280;24211;49.980;19.776;2023-04-15T06:53:42;98263.28;;;13.03;100.00
38939;BME280;24211;49.980;19.776;2023-04-15T06:56:10;98261.44;;;13.08;100.00
38939;BME280;24211;49.980;19.776;2023-04-15T06:58:37;98263.59;;;13.12;100.00
38939;BME280;24211;49.980;19.776;2023-04-15T07:01:05;98270.84;;;13.21;100.00
38939;BME280;24211;49.980;19.776;2023-04-15T07:03:32;98272.22;;;13.34;100.00
38939;BME280;24211;49.980;19.776;2023-04-15T07:06:00;98281.06;;;13.44;100.00
38939;BME280;24211;49.980;19.776;2023-04-15T07:08:32;98281.34;;;13.53;100.00
38939;BME280;24211;49.980;19.776;2023-04-15T07:11:00;98285.09;;;13.57;100.00
38939;BME280;24211;49.980;19.776;2023-04-15T07:13:30;98298.50;;;13.62;100.00
38939;BME280;24211;49.980;19.776;2023-04-15T07:15:58;98293.66;;;13.69;100.00
38939;BME280;24211;49.980;19.776;2023-04-15T07:18:25;98296.88;;;13.81;100.00
38939;BME280;24211;49.980;19.776;2023-04-15T07:20:53;98301.72;;;13.94;100.00
38939;BME280;24211;49.980;19.776;2023-04-15T07:23:20;98302.78;;;13.98;100.00
38939;BME280;24211;49.980;19.776;2023-04-15T07:25:48;98296.59;;;14.08;100.00
38939;BME280;24211;49.980;19.776;2023-04-15T07:28:15;98305.97;;;14.10;100.00
38939;BME280;24211;49.980;19.776;2023-04-15T07:30:42;98309.22;;;14.12;100.00
38939;BME280;24211;49.980;19.776;2023-04-15T07:33:11;98302.50;;;14.15;100.00
38939;BME280;24211;49.980;19.776;2023-04-15T07:35:38;98305.72;;;14.17;100.00
38939;BME280;24211;49.980;19.776;2023-04-15T07:38:05;98311.59;;;14.24;100.00
38939;BME280;24211;49.980;19.776;2023-04-15T07:40:33;98308.09;;;14.28;100.00
38939;BME280;24211;49.980;19.776;2023-04-15T07:43:00;98300.88;;;14.34;100.00
38939;BME280;24211;49.980;19.776;2023-04-15T07:45:28;98314.53;;;14.37;100.00
38939;BME280;24211;49.980;19.776;2023-04-15T07:47:56;98318.31;;;14.42;100.00
38939;BME280;24211;49.980;19.776;2023-04-15T07:50:23;98310.75;;;14.49;100.00
38939;BME280;24211;49.980;19.776;2023-04-15T07:52:50;98304.00;;;14.56;100.00
38939;BME280;24211;49.980;19.776;2023-04-15T07:55:18;98305.34;;;14.64;100.00
38939;BME280;24211;49.980;19.776;2023-04-15T07:57:48;98308.25;;;14.72;100.00
38939;BME280;24211;49.980;19.776;2023-04-15T08:00:16;98314.94;;;14.80;100.00
38939;BME280;24211;49.980;19.776;2023-04-15T08:02:44;98315.44;;;14.87;100.00
38939;BME280;24211;49.980;19.776;2023-04-15T08:05:13;98319.72;;;14.93;100.00
38939;BME280;24211;49.980;19.776;2023-04-15T08:07:41;98312.66;;;15.02;100.00
38939;BME280;24211;49.980;19.776;2023-04-15T08:10:08;98308.84;;;15.13;100.00
38939;BME280;24211;49.980;19.776;2023-04-15T08:12:36;98310.38;;;15.24;100.00
38939;BME280;24211;49.980;19.776;2023-04-15T08:15:04;98311.69;;;15.32;100.00
38939;BME280;24211;49.980;19.776;2023-04-15T08:17:31;98310.03;;;15.36;100.00
38939;BME280;24211;49.980;19.776;2023-04-15T08:19:59;98322.09;;;15.48;100.00
38939;BME280;24211;49.980;19.776;2023-04-15T08:22:26;98312.31;;;15.62;100.00
38939;BME280;24211;49.980;19.776;2023-04-15T08:24:54;98314.88;;;15.78;100.00
38939;BME280;24211;49.980;19.776;2023-04-15T08:27:22;98317.22;;;15.89;100.00
38939;BME280;24211;49.980;19.776;2023-04-15T08:29:49;98313.88;;;15.97;100.00
38939;BME280;24211;49.980;19.776;2023-04-15T08:32:16;98310.25;;;16.12;100.00
38939;BME280;24211;49.980;19.776;2023-04-15T08:34:45;98323.47;;;16.37;100.00
38939;BME280;24211;49.980;19.776;2023-04-15T08:37:12;98309.50;;;16.59;100.00
38939;BME280;24211;49.980;19.776;2023-04-15T08:39:39;98316.03;;;16.76;100.00
38939;BME280;24211;49.980;19.776;2023-04-15T08:42:15;98312.59;;;16.94;100.00
38939;BME280;24211;49.980;19.776;2023-04-15T08:44:45;98306.91;;;17.15;100.00
38939;BME280;24211;49.980;19.776;2023-04-15T08:47:13;98309.97;;;17.27;100.00
38939;BME280;24211;49.980;19.776;2023-04-15T08:49:43;98306.03;;;17.38;100.00
38939;BME280;24211;49.980;19.776;2023-04-15T08:52:11;98305.59;;;17.68;100.00
38939;BME280;24211;49.980;19.776;2023-04-15T08:54:39;98300.84;;;17.92;100.00
38939;BME280;24211;49.980;19.776;2023-04-15T08:57:06;98300.69;;;18.16;81.24
38939;BME280;24211;49.980;19.776;2023-04-15T08:59:34;98303.44;;;18.43;73.12
38939;BME280;24211;49.980;19.776;2023-04-15T09:02:04;98299.97;;;18.56;66.53
38939;BME280;24211;49.980;19.776;2023-04-15T09:04:33;98296.75;;;18.68;61.37
38939;BME280;24211;49.980;19.776;2023-04-15T09:07:00;98302.97;;;18.82;60.05
38939;BME280;24211;49.980;19.776;2023-04-15T09:09:28;98291.69;;;19.16;60.10
38939;BME280;24211;49.980;19.776;2023-04-15T09:11:55;98290.28;;;19.54;60.11
38939;BME280;24211;49.980;19.776;2023-04-15T09:14:23;98283.50;;;19.65;58.67
38939;BME280;24211;49.980;19.776;2023-04-15T09:17:01;98290.34;;;19.63;59.73
38939;BME280;24211;49.980;19.776;2023-04-15T09:19:30;98292.00;;;19.50;59.99
38939;BME280;24211;49.980;19.776;2023-04-15T09:21:59;98293.19;;;19.58;61.23
38939;BME280;24211;49.980;19.776;2023-04-15T09:24:39;98279.00;;;19.83;66.48
38939;BME280;24211;49.980;19.776;2023-04-15T09:27:08;98279.25;;;19.73;59.63
38939;BME280;24211;49.980;19.776;2023-04-15T09:29:36;98284.56;;;19.55;55.67
38939;BME280;24211;49.980;19.776;2023-04-15T09:32:14;98281.31;;;19.98;54.35
38939;BME280;24211;49.980;19.776;2023-04-15T09:34:42;98282.41;;;20.19;55.23
38939;BME280;24211;49.980;19.776;2023-04-15T09:37:10;98275.88;;;19.98;53.67
38939;BME280;24211;49.980;19.776;2023-04-15T09:39:57;98283.41;;;20.23;56.51
38939;BME280;24211;49.980;19.776;2023-04-15T09:42:24;98279.72;;;19.97;51.33
38939;BME280;24211;49.980;19.776;2023-04-15T09:44:53;98280.44;;;20.11;55.21
38939;BME280;24211;49.980;19.776;2023-04-15T09:47:30;98266.75;;;20.16;55.02
38939;BME280;24211;49.980;19.776;2023-04-15T09:50:00;98268.63;;;20.07;51.03
38939;BME280;24211;49.980;19.776;2023-04-15T09:52:29;98272.44;;;20.06;52.87
38939;BME280;24211;49.980;19.776;2023-04-15T09:54:58;98269.31;;;20.21;53.36
38939;BME280;24211;49.980;19.776;2023-04-15T09:57:35;98267.94;;;20.32;53.24
38939;BME280;24211;49.980;19.776;2023-04-15T10:00:04;98272.53;;;20.23;51.86
38939;BME280;24211;49.980;19.776;2023-04-15T10:02:36;98271.06;;;20.17;51.21
38939;BME280;24211;49.980;19.776;2023-04-15T10:05:05;98265.50;;;20.22;54.00
38939;BME280;24211;49.980;19.776;2023-04-15T10:07:33;98258.84;;;20.28;56.94
38939;BME280;24211;49.980;19.776;2023-04-15T10:10:03;98271.22;;;20.20;56.45
38939;BME280;24211;49.980;19.776;2023-04-15T10:12:31;98265.25;;;20.10;55.86
38939;BME280;24211;49.980;19.776;2023-04-15T10:15:04;98268.88;;;19.97;55.23
38939;BME280;24211;49.980;19.776;2023-04-15T10:17:33;98265.03;;;19.67;52.52
38939;BME280;24211;49.980;19.776;2023-04-15T10:20:03;98276.56;;;19.50;56.00
38939;BME280;24211;49.980;19.776;2023-04-15T10:22:31;98283.25;;;19.17;55.32
38939;BME280;24211;49.980;19.776;2023-04-15T10:25:02;98280.81;;;18.80;52.02
38939;BME280;24211;49.980;19.776;2023-04-15T10:27:30;98286.84;;;18.77;56.74
38939;BME280;24211;49.980;19.776;2023-04-15T10:29:59;98282.22;;;18.91;56.78
38939;BME280;24211;49.980;19.776;2023-04-15T10:32:30;98283.13;;;18.86;56.74
38939;BME280;24211;49.980;19.776;2023-04-15T10:34:58;98280.50;;;18.68;58.58
38939;BME280;24211;49.980;19.776;2023-04-15T10:37:37;98272.50;;;18.63;57.76
38939;BME280;24211;49.980;19.776;2023-04-15T10:40:31;98284.66;;;18.52;59.32
38939;BME280;24211;49.980;19.776;2023-04-15T10:43:01;98291.31;;;18.27;58.78
38939;BME280;24211;49.980;19.776;2023-04-15T10:45:35;98288.47;;;18.18;58.62
38939;BME280;24211;49.980;19.776;2023-04-15T10:48:06;98280.69;;;18.17;58.84
38939;BME280;24211;49.980;19.776;2023-04-15T10:50:36;98286.69;;;18.14;60.15
38939;BME280;24211;49.980;19.776;2023-04-15T10:53:03;98289.28;;;18.05;63.41
38939;BME280;24211;49.980;19.776;2023-04-15T10:55:33;98295.28;;;18.02;64.27
38939;BME280;24211;49.980;19.776;2023-04-15T10:58:02;98292.06;;;18.00;61.36
38939;BME280;24211;49.980;19.776;2023-04-15T11:00:31;98291.66;;;17.93;64.76
38939;BME280;24211;49.980;19.776;2023-04-15T11:03:05;98292.84;;;17.87;61.36
38939;BME280;24211;49.980;19.776;2023-04-15T11:08:08;98292.84;;;17.87;69.92
38939;BME280;24211;49.980;19.776;2023-04-15T11:15:45;98295.03;;;17.85;68.55
38939;BME280;24211;49.980;19.776;2023-04-15T11:18:28;98294.53;;;17.83;72.63
38939;BME280;24211;49.980;19.776;2023-04-15T11:21:03;98292.84;;;17.87;62.62
38939;BME280;24211;49.980;19.776;2023-04-15T11:23:37;98283.75;;;17.64;59.87
38939;BME280;24211;49.980;19.776;2023-04-15T11:26:08;98289.22;;;17.78;57.55
38939;BME280;24211;49.980;19.776;2023-04-15T11:28:42;98290.88;;;18.06;56.11
38939;BME280;24211;49.980;19.776;2023-04-15T11:31:18;98293.75;;;17.96;58.67
38939;BME280;24211;49.980;19.776;2023-04-15T11:33:57;98296.91;;;18.03;57.34
38939;BME280;24211;49.980;19.776;2023-04-15T11:36:29;98292.72;;;18.24;59.28
38939;BME280;24211;49.980;19.776;2023-04-15T11:38:59;98297.22;;;18.29;59.08
38939;BME280;24211;49.980;19.776;2023-04-15T11:41:27;98290.16;;;18.47;60.84
38939;BME280;24211;49.980;19.776;2023-04-15T11:43:54;98294.38;;;18.66;61.38
38939;BME280;24211;49.980;19.776;2023-04-15T11:46:29;98299.47;;;18.81;60.94
38939;BME280;24211;49.980;19.776;2023-04-15T11:48:57;98296.66;;;18.86;59.72
38939;BME280;24211;49.980;19.776;2023-04-15T11:51:31;98297.38;;;18.65;56.06
38939;BME280;24211;49.980;19.776;2023-04-15T11:53:58;98290.53;;;18.81;58.24
38939;BME280;24211;49.980;19.776;2023-04-15T11:56:26;98300.97;;;18.74;52.64
38939;BME280;24211;49.980;19.776;2023-04-15T11:58:58;98301.38;;;18.81;59.12
38939;BME280;24211;49.980;19.776;2023-04-15T12:01:38;98298.34;;;18.42;51.43
38939;BME280;24211;49.980;19.776;2023-04-15T12:04:16;98297.38;;;18.65;54.40
38939;BME280;24211;49.980;19.776;2023-04-15T12:06:51;98295.25;;;18.48;51.64
38939;BME280;24211;49.980;19.776;2023-04-15T12:09:18;98301.56;;;18.71;54.63
38939;BME280;24211;49.980;19.776;2023-04-15T12:14:24;98299.16;;;18.56;49.90
38939;BME280;24211;49.980;19.776;2023-04-15T12:16:58;98299.38;;;18.86;51.12
38939;BME280;24211;49.980;19.776;2023-04-15T12:19:41;98293.09;;;19.00;50.79
38939;BME280;24211;49.980;19.776;2023-04-15T12:24:38;98302.34;;;18.85;47.46
38939;BME280;24211;49.980;19.776;2023-04-15T12:27:09;98300.44;;;18.99;48.66
38939;BME280;24211;49.980;19.776;2023-04-15T12:29:39;98295.69;;;19.18;51.47
38939;BME280;24211;49.980;19.776;2023-04-15T12:37:08;98298.03;;;19.91;48.44
38939;BME280;24211;49.980;19.776;2023-04-15T12:39:39;98298.47;;;19.63;48.77
38939;BME280;24211;49.980;19.776;2023-04-15T12:42:08;98300.56;;;19.66;48.32
38939;BME280;24211;49.980;19.776;2023-04-15T12:44:36;98299.28;;;19.41;47.64
38939;BME280;24211;49.980;19.776;2023-04-15T12:47:06;98305.59;;;19.58;49.35
38939;BME280;24211;49.980;19.776;2023-04-15T12:49:34;98299.66;;;19.34;50.12
38939;BME280;24211;49.980;19.776;2023-04-15T12:52:02;98304.03;;;19.08;51.43
38939;BME280;24211;49.980;19.776;2023-04-15T12:54:30;98304.94;;;19.04;48.65
38939;BME280;24211;49.980;19.776;2023-04-15T12:56:58;98300.56;;;19.66;50.04
38939;BME280;24211;49.980;19.776;2023-04-15T12:59:27;98296.38;;;19.82;47.78
38939;BME280;24211;49.980;19.776;2023-04-15T13:01:55;98304.34;;;18.93;48.08
38939;BME280;24211;49.980;19.776;2023-04-15T13:04:22;98299.53;;;19.04;49.26
38939;BME280;24211;49.980;19.776;2023-04-15T13:06:50;98308.97;;;18.92;48.48
38939;BME280;24211;49.980;19.776;2023-04-15T13:09:17;98298.88;;;19.20;50.53
38939;BME280;24211;49.980;19.776;2023-04-15T13:11:45;98310.91;;;18.65;48.73